createdAt,value
2019-03-19T00:00:47.962Z,4.70
2019-03-19T00:03:17.748Z,4.70
2019-03-19T00:05:47.538Z,4.70
2019-03-19T00:08:17.322Z,4.70
2019-03-19T00:10:47.120Z,4.70
2019-03-19T00:13:18.016Z,4.70
2019-03-19T00:15:47.839Z,4.70
2019-03-19T00:18:17.632Z,4.60
2019-03-19T00:20:47.439Z,4.60
2019-03-19T00:23:18.299Z,4.60
2019-03-19T00:25:48.105Z,4.60
2019-03-19T00:28:17.902Z,4.60
2019-03-19T00:30:47.714Z,4.60
2019-03-19T00:33:17.482Z,4.60
2019-03-19T00:35:47.248Z,4.60
2019-03-19T00:38:17.056Z,4.60
2019-03-19T00:40:46.858Z,4.60
2019-03-19T00:43:16.643Z,4.60
2019-03-19T00:45:46.456Z,4.60
2019-03-19T00:48:16.243Z,4.60
2019-03-19T00:50:46.027Z,4.60
2019-03-19T00:53:15.817Z,4.50
2019-03-19T00:55:45.596Z,4.50
2019-03-19T00:58:15.383Z,4.50
2019-03-19T01:00:45.187Z,4.50
2019-03-19T01:03:15.079Z,4.50
2019-03-19T01:05:44.862Z,4.50
2019-03-19T01:08:14.656Z,4.40
2019-03-19T01:10:44.533Z,4.30
2019-03-19T01:13:14.377Z,4.30
2019-03-19T01:15:44.170Z,4.30
2019-03-19T01:18:13.985Z,4.30
2019-03-19T01:20:43.778Z,4.30
2019-03-19T01:23:13.566Z,4.20
2019-03-19T01:25:54.810Z,4.20
2019-03-19T01:28:14.827Z,4.20
2019-03-19T01:30:45.588Z,4.20
2019-03-19T01:33:15.371Z,4.20
2019-03-19T01:35:45.157Z,4.20
2019-03-19T01:38:16.099Z,4.20
2019-03-19T01:40:45.902Z,4.10
2019-03-19T01:43:15.684Z,4.10
2019-03-19T01:45:45.475Z,4.10
2019-03-19T01:48:15.260Z,4.10
2019-03-19T01:50:45.058Z,4.10
2019-03-19T01:53:14.836Z,4.10
2019-03-19T01:55:44.624Z,4.10
2019-03-19T01:58:14.399Z,4.10
2019-03-19T02:00:44.189Z,4.00
2019-03-19T02:03:13.969Z,4.00
2019-03-19T02:05:43.755Z,4.00
2019-03-19T02:08:13.535Z,4.00
2019-03-19T02:10:44.408Z,4.00
2019-03-19T02:13:14.194Z,3.90
2019-03-19T02:15:43.978Z,3.90
2019-03-19T02:18:13.760Z,3.90
2019-03-19T02:20:43.588Z,3.90
2019-03-19T02:23:13.370Z,3.80
2019-03-19T02:25:43.172Z,3.80
2019-03-19T02:28:12.938Z,3.80
2019-03-19T02:30:42.745Z,3.80
2019-03-19T02:33:12.530Z,3.80
2019-03-19T02:35:42.328Z,3.70
2019-03-19T02:38:12.177Z,3.70
2019-03-19T02:40:41.959Z,3.70
2019-03-19T02:43:11.742Z,3.70
2019-03-19T02:45:41.538Z,3.70
2019-03-19T02:48:11.392Z,3.70
2019-03-19T02:50:41.171Z,3.70
2019-03-19T02:53:10.958Z,3.70
2019-03-19T02:55:40.743Z,3.70
2019-03-19T02:58:10.530Z,3.70
2019-03-19T03:00:40.457Z,3.60
2019-03-19T03:03:10.227Z,3.50
2019-03-19T03:05:40.840Z,3.50
2019-03-19T03:08:10.645Z,3.50
2019-03-19T03:10:40.429Z,3.50
2019-03-19T03:13:10.240Z,3.50
2019-03-19T03:15:40.029Z,3.50
2019-03-19T03:18:09.807Z,3.50
2019-03-19T03:20:39.594Z,3.50
2019-03-19T03:23:09.395Z,3.50
2019-03-19T03:25:39.182Z,3.40
2019-03-19T03:28:08.950Z,3.40
2019-03-19T03:30:38.758Z,3.40
2019-03-19T03:33:08.657Z,3.40
2019-03-19T03:35:38.515Z,3.40
2019-03-19T03:38:08.296Z,3.40
2019-03-19T03:40:38.175Z,3.40
2019-03-19T03:43:08.011Z,3.40
2019-03-19T03:45:37.801Z,3.30
2019-03-19T03:48:07.581Z,3.40
2019-03-19T03:50:37.366Z,3.40
2019-03-19T03:53:07.165Z,3.30
2019-03-19T03:55:36.940Z,3.30
2019-03-19T03:58:06.732Z,3.30
2019-03-19T04:00:36.527Z,3.30
2019-03-19T04:03:06.307Z,3.20
2019-03-19T04:05:36.080Z,3.30
2019-03-19T04:08:05.911Z,3.30
2019-03-19T04:10:35.752Z,3.20
2019-03-19T04:13:05.611Z,3.20
2019-03-19T04:15:35.403Z,3.10
2019-03-19T04:18:05.261Z,3.20
2019-03-19T04:20:35.056Z,3.20
2019-03-19T04:23:04.912Z,3.10
2019-03-19T04:25:34.763Z,3.20
2019-03-19T04:28:04.801Z,3.10
2019-03-19T04:30:34.580Z,3.10
2019-03-19T04:33:04.772Z,3.10
2019-03-19T04:35:34.595Z,3.10
2019-03-19T04:38:04.387Z,3.10
2019-03-19T04:40:34.182Z,3.10
2019-03-19T04:43:04.051Z,3.10
2019-03-19T04:45:33.831Z,3.10
2019-03-19T04:48:03.831Z,3.00
2019-03-19T04:50:33.639Z,3.10
2019-03-19T04:53:03.425Z,3.10
2019-03-19T04:55:33.207Z,3.10
2019-03-19T04:58:03.003Z,3.10
2019-03-19T05:00:32.772Z,3.10
2019-03-19T05:03:02.559Z,3.10
2019-03-19T05:05:32.355Z,3.10
2019-03-19T05:08:02.139Z,3.00
2019-03-19T05:10:31.919Z,3.00
2019-03-19T05:13:01.720Z,3.00
2019-03-19T05:15:31.507Z,3.10
2019-03-19T05:18:01.295Z,3.10
2019-03-19T05:20:31.089Z,3.10
2019-03-19T05:23:00.854Z,3.10
2019-03-19T05:25:30.662Z,3.10
2019-03-19T05:28:00.446Z,3.10
2019-03-19T05:30:30.247Z,3.10
2019-03-19T05:33:02.161Z,3.10
2019-03-19T05:35:32.078Z,3.10
2019-03-19T05:38:01.888Z,3.10
2019-03-19T05:40:31.737Z,3.10
2019-03-19T05:43:01.520Z,3.10
2019-03-19T05:45:31.312Z,3.10
2019-03-19T05:48:01.092Z,3.20
2019-03-19T05:50:30.888Z,3.30
2019-03-19T05:53:00.665Z,3.30
2019-03-19T05:55:30.442Z,3.30
2019-03-19T05:58:00.226Z,3.40
2019-03-19T06:00:37.175Z,3.40
2019-03-19T06:03:06.963Z,3.40
2019-03-19T06:05:36.739Z,3.40
2019-03-19T06:08:06.537Z,3.40
2019-03-19T06:10:36.319Z,3.40
2019-03-19T06:13:06.111Z,3.50
2019-03-19T06:15:35.896Z,3.60
2019-03-19T06:18:05.744Z,3.60
2019-03-19T06:20:35.517Z,3.70
2019-03-19T06:23:05.304Z,3.70
2019-03-19T06:25:54.416Z,3.80
2019-03-19T06:28:24.285Z,3.90
2019-03-19T06:30:54.059Z,4.00
2019-03-19T06:33:23.847Z,4.10
2019-03-19T06:35:53.657Z,4.10
2019-03-19T06:38:23.443Z,4.10
2019-03-19T06:40:53.211Z,4.20
2019-03-19T06:43:23.011Z,4.40
2019-03-19T06:45:52.786Z,4.50
2019-03-19T06:48:22.587Z,4.60
2019-03-19T06:50:52.355Z,4.70
2019-03-19T06:53:22.144Z,4.70
2019-03-19T06:55:52.887Z,4.70
2019-03-19T06:58:22.675Z,4.80
2019-03-19T07:00:52.456Z,4.90
2019-03-19T07:03:22.235Z,4.90
2019-03-19T07:05:52.007Z,4.90
2019-03-19T07:08:22.775Z,5.00
2019-03-19T07:10:52.555Z,5.10
2019-03-19T07:13:22.338Z,5.10
2019-03-19T07:15:52.138Z,5.20
2019-03-19T07:18:21.915Z,5.20
2019-03-19T07:20:51.711Z,5.40
2019-03-19T07:23:21.488Z,5.40
2019-03-19T07:25:51.278Z,5.40
2019-03-19T07:28:22.216Z,5.50
2019-03-19T07:30:52.316Z,5.50
2019-03-19T07:33:22.084Z,5.50
2019-03-19T07:35:51.872Z,5.60
2019-03-19T07:38:21.647Z,5.70
2019-03-19T07:40:51.439Z,5.80
2019-03-19T07:43:21.231Z,5.90
2019-03-19T07:45:51.019Z,5.90
2019-03-19T07:48:20.801Z,6.10
2019-03-19T07:50:50.579Z,6.10
2019-03-19T07:53:20.355Z,6.20
2019-03-19T07:55:50.148Z,6.30
2019-03-19T07:58:19.918Z,6.30
2019-03-19T08:00:49.690Z,6.40
2019-03-19T08:03:19.483Z,6.40
2019-03-19T08:05:49.255Z,6.50
2019-03-19T08:08:19.047Z,6.60
2019-03-19T08:10:48.826Z,6.70
2019-03-19T08:13:18.624Z,6.80
2019-03-19T08:15:48.399Z,6.80
2019-03-19T08:18:18.196Z,6.90
2019-03-19T08:20:47.968Z,6.90
2019-03-19T08:23:17.747Z,6.90
2019-03-19T08:25:47.523Z,7.00
2019-03-19T08:28:17.319Z,7.10
2019-03-19T08:30:47.095Z,7.10
2019-03-19T08:33:16.886Z,7.20
2019-03-19T08:35:46.650Z,7.30
2019-03-19T08:38:16.431Z,7.30
2019-03-19T08:40:46.207Z,7.40
2019-03-19T08:43:15.997Z,7.40
2019-03-19T08:45:46.855Z,7.40
2019-03-19T08:48:16.647Z,7.50
2019-03-19T08:50:46.419Z,7.50
2019-03-19T08:53:16.217Z,7.60
2019-03-19T08:55:46.004Z,7.60
2019-03-19T08:58:15.796Z,7.70
2019-03-19T09:00:45.575Z,7.90
2019-03-19T09:03:15.430Z,7.90
2019-03-19T09:05:45.234Z,8.00
2019-03-19T09:08:15.036Z,8.10
2019-03-19T09:10:44.819Z,8.10
2019-03-19T09:13:14.615Z,8.00
2019-03-19T09:15:44.387Z,8.10
2019-03-19T09:18:16.058Z,8.30
2019-03-19T09:20:45.663Z,8.30
2019-03-19T09:23:15.444Z,8.40
2019-03-19T09:25:45.239Z,8.50
2019-03-19T09:28:15.014Z,8.50
2019-03-19T09:30:44.885Z,8.50
2019-03-19T09:33:14.660Z,8.60
2019-03-19T09:35:44.448Z,8.70
2019-03-19T09:38:14.230Z,8.70
2019-03-19T09:40:44.016Z,8.80
2019-03-19T09:43:13.788Z,8.80
2019-03-19T09:45:43.579Z,8.90
2019-03-19T09:48:13.356Z,8.90
2019-03-19T09:50:45.905Z,9.00
2019-03-19T09:53:15.666Z,9.10
2019-03-19T09:55:45.460Z,9.20
2019-03-19T09:58:15.223Z,9.30
2019-03-19T10:00:45.096Z,8.90
2019-03-19T10:03:14.870Z,9.10
2019-03-19T10:05:44.688Z,9.10
2019-03-19T10:08:14.530Z,9.30
2019-03-19T10:10:44.405Z,9.50
2019-03-19T10:13:15.152Z,9.80
2019-03-19T10:15:45.054Z,9.80
2019-03-19T10:18:14.855Z,9.80
2019-03-19T10:20:44.694Z,9.90
2019-03-19T10:23:14.483Z,10.00
2019-03-19T10:25:44.285Z,10.20
2019-03-19T10:28:14.742Z,10.10
2019-03-19T10:30:44.540Z,10.30
2019-03-19T10:33:16.031Z,10.40
2019-03-19T10:35:46.025Z,10.50
2019-03-19T10:38:15.827Z,10.20
2019-03-19T10:40:45.801Z,9.90
2019-03-19T10:43:15.591Z,9.90
2019-03-19T10:45:45.364Z,10.00
2019-03-19T10:48:15.151Z,9.80
2019-03-19T10:50:44.921Z,9.50
2019-03-19T10:53:14.702Z,9.40
2019-03-19T10:55:44.483Z,9.40
2019-03-19T10:58:14.255Z,9.60
2019-03-19T11:00:44.095Z,9.90
2019-03-19T11:03:13.911Z,10.10
2019-03-19T11:05:43.698Z,10.20
2019-03-19T11:08:13.501Z,10.30
2019-03-19T11:10:46.287Z,10.40
2019-03-19T11:13:16.089Z,10.50
2019-03-19T11:15:45.865Z,10.30
2019-03-19T11:18:15.686Z,10.30
2019-03-19T11:20:45.637Z,10.30
2019-03-19T11:23:15.425Z,10.40
2019-03-19T11:25:54.152Z,10.30
2019-03-19T11:28:16.689Z,10.40
2019-03-19T11:30:46.471Z,10.50
2019-03-19T11:33:16.251Z,10.70
2019-03-19T11:35:46.050Z,10.80
2019-03-19T11:38:15.851Z,11.00
2019-03-19T11:40:45.638Z,11.00
2019-03-19T11:43:15.445Z,11.10
2019-03-19T11:45:45.231Z,11.10
2019-03-19T11:48:15.043Z,11.00
2019-03-19T11:50:44.843Z,10.90
2019-03-19T11:53:14.627Z,11.00
2019-03-19T11:55:44.419Z,11.00
2019-03-19T11:58:14.277Z,11.20
2019-03-19T12:00:51.646Z,11.30
2019-03-19T12:03:21.424Z,11.30
2019-03-19T12:05:51.210Z,11.40
2019-03-19T12:08:20.983Z,11.40
2019-03-19T12:10:50.785Z,11.50
2019-03-19T12:13:20.631Z,11.60
2019-03-19T12:15:50.420Z,11.60
2019-03-19T12:18:21.281Z,11.40
2019-03-19T12:20:51.064Z,11.40
2019-03-19T12:23:20.950Z,11.50
2019-03-19T12:25:50.742Z,11.60
2019-03-19T12:28:20.531Z,11.70
2019-03-19T12:30:50.401Z,11.70
2019-03-19T12:33:20.188Z,11.70
2019-03-19T12:35:50.041Z,11.70
2019-03-19T12:38:19.821Z,11.70
2019-03-19T12:40:49.592Z,11.80
2019-03-19T12:43:19.384Z,12.00
2019-03-19T12:45:49.159Z,12.00
2019-03-19T12:48:19.040Z,11.80
2019-03-19T12:50:50.104Z,11.50
2019-03-19T12:53:19.896Z,11.60
2019-03-19T12:55:49.684Z,11.90
2019-03-19T12:58:19.516Z,12.00
2019-03-19T13:00:49.309Z,12.00
2019-03-19T13:03:19.127Z,12.10
2019-03-19T13:05:48.943Z,12.30
2019-03-19T13:08:20.382Z,12.40
2019-03-19T13:10:50.414Z,12.40
2019-03-19T13:13:20.228Z,12.30
2019-03-19T13:15:49.996Z,12.30
2019-03-19T13:18:19.821Z,12.20
2019-03-19T13:20:49.618Z,12.40
2019-03-19T13:23:19.413Z,12.30
2019-03-19T13:25:49.207Z,12.40
2019-03-19T13:28:18.974Z,12.70
2019-03-19T13:30:49.329Z,12.80
2019-03-19T13:33:19.107Z,12.80
2019-03-19T13:35:48.912Z,13.00
2019-03-19T13:38:18.703Z,13.20
2019-03-19T13:40:48.487Z,13.40
2019-03-19T13:43:18.265Z,13.60
2019-03-19T13:45:48.051Z,14.80
2019-03-19T13:48:17.829Z,16.10
2019-03-19T13:50:47.625Z,16.30
2019-03-19T13:53:17.396Z,15.80
2019-03-19T13:55:47.198Z,15.20
2019-03-19T13:58:16.975Z,15.00
2019-03-19T14:00:55.335Z,16.30
2019-03-19T14:03:18.270Z,21.10
2019-03-19T14:05:48.064Z,25.90
2019-03-19T14:08:18.086Z,28.50
2019-03-19T14:10:48.016Z,28.80
2019-03-19T14:13:17.795Z,26.70
2019-03-19T14:15:47.739Z,25.00
2019-03-19T14:18:17.524Z,26.20
2019-03-19T14:20:47.307Z,26.30
2019-03-19T14:23:17.103Z,22.60
2019-03-19T14:25:46.883Z,20.00
2019-03-19T14:28:16.685Z,18.40
2019-03-19T14:30:46.546Z,16.50
2019-03-19T14:33:16.329Z,15.50
2019-03-19T14:35:46.127Z,15.10
2019-03-19T14:38:15.921Z,14.70
2019-03-19T14:40:45.835Z,14.40
2019-03-19T14:43:15.692Z,14.10
2019-03-19T14:45:45.483Z,13.80
2019-03-19T14:48:15.455Z,13.50
2019-03-19T14:50:45.252Z,13.30
2019-03-19T14:53:15.060Z,12.90
2019-03-19T14:55:44.839Z,12.80
2019-03-19T14:58:14.634Z,12.90
2019-03-19T15:00:44.496Z,13.00
2019-03-19T15:03:14.279Z,12.90
2019-03-19T15:05:44.085Z,12.90
2019-03-19T15:08:13.888Z,12.80
2019-03-19T15:10:43.682Z,12.70
2019-03-19T15:13:13.476Z,12.50
2019-03-19T15:15:43.267Z,12.30
2019-03-19T15:18:13.048Z,12.20
2019-03-19T15:20:42.911Z,12.10
2019-03-19T15:23:12.708Z,12.00
2019-03-19T15:25:42.573Z,12.00
2019-03-19T15:28:12.366Z,11.90
2019-03-19T15:30:42.226Z,11.70
2019-03-19T15:33:14.687Z,11.50
2019-03-19T15:35:44.559Z,11.30
2019-03-19T15:38:14.408Z,11.30
2019-03-19T15:40:44.217Z,11.20
2019-03-19T15:43:14.052Z,11.20
2019-03-19T15:45:43.836Z,11.10
2019-03-19T15:48:13.610Z,11.00
2019-03-19T15:50:43.464Z,10.90
2019-03-19T15:53:13.281Z,10.80
2019-03-19T15:55:43.154Z,10.80
2019-03-19T15:58:13.004Z,10.80
2019-03-19T16:00:42.804Z,10.70
2019-03-19T16:03:12.605Z,10.70
2019-03-19T16:05:42.407Z,10.70
2019-03-19T16:08:12.208Z,10.70
2019-03-19T16:10:41.980Z,10.80
2019-03-19T16:13:11.796Z,10.80
2019-03-19T16:15:41.583Z,10.80
2019-03-19T16:18:11.385Z,10.80
2019-03-19T16:20:41.167Z,10.80
2019-03-19T16:23:10.966Z,10.80
2019-03-19T16:25:40.773Z,10.70
2019-03-19T16:28:10.641Z,10.60
2019-03-19T16:30:40.444Z,10.60
2019-03-19T16:33:10.223Z,10.60
2019-03-19T16:35:40.010Z,10.50
2019-03-19T16:38:09.797Z,10.40
2019-03-19T16:40:39.587Z,10.40
2019-03-19T16:43:09.412Z,10.40
2019-03-19T16:45:39.197Z,10.30
2019-03-19T16:48:08.996Z,10.20
2019-03-19T16:50:38.769Z,10.10
2019-03-19T16:53:08.560Z,10.10
2019-03-19T16:55:38.355Z,10.00
2019-03-19T16:58:08.139Z,10.00
2019-03-19T17:00:37.936Z,10.00
2019-03-19T17:03:07.732Z,9.90
2019-03-19T17:05:37.530Z,9.90
2019-03-19T17:08:07.311Z,9.80
2019-03-19T17:10:37.095Z,9.80
2019-03-19T17:13:06.872Z,9.80
2019-03-19T17:15:36.657Z,9.70
2019-03-19T17:18:06.443Z,9.70
2019-03-19T17:20:36.294Z,9.60
2019-03-19T17:23:06.152Z,9.50
2019-03-19T17:25:35.946Z,9.50
2019-03-19T17:28:05.857Z,9.40
2019-03-19T17:30:36.364Z,9.30
2019-03-19T17:33:06.220Z,9.30
2019-03-19T17:35:36.021Z,9.20
2019-03-19T17:38:05.805Z,9.20
2019-03-19T17:40:41.186Z,9.20
2019-03-19T17:43:07.095Z,9.10
2019-03-19T17:45:36.873Z,9.10
2019-03-19T17:48:15.765Z,9.00
2019-03-19T17:50:40.672Z,9.00
2019-03-19T17:53:10.472Z,8.90
2019-03-19T17:55:40.336Z,8.90
2019-03-19T17:58:10.204Z,8.90
2019-03-19T18:00:44.442Z,8.80
2019-03-19T18:03:14.235Z,8.80
2019-03-19T18:05:44.892Z,8.80
2019-03-19T18:08:14.680Z,8.70
2019-03-19T18:10:44.458Z,8.70
2019-03-19T18:13:14.292Z,8.60
2019-03-19T18:15:44.130Z,8.60
2019-03-19T18:18:13.933Z,8.50
2019-03-19T18:20:43.707Z,8.50
2019-03-19T18:23:13.514Z,8.50
2019-03-19T18:25:43.303Z,8.50
2019-03-19T18:28:13.098Z,8.40
2019-03-19T18:30:42.882Z,8.50
2019-03-19T18:33:12.660Z,8.40
2019-03-19T18:35:42.452Z,8.40
2019-03-19T18:38:12.236Z,8.40
2019-03-19T18:40:42.026Z,8.30
2019-03-19T18:43:12.876Z,8.30
2019-03-19T18:45:42.663Z,8.30
2019-03-19T18:48:13.524Z,8.20
2019-03-19T18:50:43.308Z,8.20
2019-03-19T18:53:13.088Z,8.20
2019-03-19T18:55:42.878Z,8.10
2019-03-19T18:58:12.658Z,8.10
2019-03-19T19:00:42.439Z,8.00
2019-03-19T19:03:12.221Z,8.00
2019-03-19T19:05:42.008Z,8.10
2019-03-19T19:08:11.781Z,8.10
2019-03-19T19:10:42.560Z,8.10
2019-03-19T19:13:12.334Z,8.10
2019-03-19T19:15:42.165Z,8.00
2019-03-19T19:18:11.993Z,8.00
2019-03-19T19:20:41.791Z,8.00
2019-03-19T19:23:11.571Z,7.90
2019-03-19T19:25:41.387Z,7.90
2019-03-19T19:28:11.172Z,7.80
2019-03-19T19:30:40.976Z,7.80
2019-03-19T19:33:10.767Z,7.80
2019-03-19T19:35:40.539Z,7.80
2019-03-19T19:38:10.323Z,7.70
2019-03-19T19:40:51.947Z,7.70
2019-03-19T19:43:21.748Z,7.70
2019-03-19T19:45:51.524Z,7.60
2019-03-19T19:48:21.340Z,7.60
2019-03-19T19:50:51.164Z,7.60
2019-03-19T19:53:20.947Z,7.70
2019-03-19T19:55:50.737Z,7.60
2019-03-19T19:58:20.531Z,7.60
2019-03-19T20:00:50.336Z,7.60
2019-03-19T20:03:20.163Z,7.50
2019-03-19T20:05:49.951Z,7.50
2019-03-19T20:08:19.756Z,7.50
2019-03-19T20:10:49.547Z,7.50
2019-03-19T20:13:19.337Z,7.50
2019-03-19T20:15:49.198Z,7.50
2019-03-19T20:18:18.980Z,7.50
2019-03-19T20:20:49.851Z,7.50
2019-03-19T20:23:19.666Z,7.50
2019-03-19T20:25:49.455Z,7.50
2019-03-19T20:28:19.244Z,7.40
2019-03-19T20:30:49.042Z,7.40
2019-03-19T20:33:24.705Z,7.40
2019-03-19T20:35:51.543Z,7.40
2019-03-19T20:38:21.321Z,7.30
2019-03-19T20:40:51.133Z,7.30
2019-03-19T20:43:20.900Z,7.30
2019-03-19T20:45:51.763Z,7.30
2019-03-19T20:48:21.552Z,7.30
2019-03-19T20:50:51.370Z,7.30
2019-03-19T20:53:21.151Z,7.30
2019-03-19T20:55:50.955Z,7.30
2019-03-19T20:58:20.742Z,7.30
2019-03-19T21:00:50.533Z,7.20
2019-03-19T21:03:20.395Z,7.20
2019-03-19T21:05:50.184Z,7.20
2019-03-19T21:08:19.960Z,7.20
2019-03-19T21:10:49.739Z,7.20
2019-03-19T21:13:19.543Z,7.20
2019-03-19T21:15:49.317Z,7.20
2019-03-19T21:18:22.143Z,7.20
2019-03-19T21:20:52.998Z,7.20
2019-03-19T21:23:22.796Z,7.20
2019-03-19T21:25:52.575Z,7.20
2019-03-19T21:28:22.376Z,7.30
2019-03-19T21:30:52.146Z,7.30
2019-03-19T21:33:21.945Z,7.30
2019-03-19T21:35:51.720Z,7.30
2019-03-19T21:38:21.523Z,7.20
2019-03-19T21:40:51.362Z,7.20
2019-03-19T21:43:21.161Z,7.20
2019-03-19T21:45:51.012Z,7.10
2019-03-19T21:48:20.824Z,7.10
2019-03-19T21:50:50.624Z,7.10
2019-03-19T21:53:21.384Z,7.10
2019-03-19T21:55:51.164Z,7.10
2019-03-19T21:58:20.977Z,7.10
2019-03-19T22:00:50.758Z,7.00
2019-03-19T22:03:20.558Z,7.00
2019-03-19T22:05:50.344Z,7.00
2019-03-19T22:08:20.124Z,7.00
2019-03-19T22:10:49.908Z,7.00
2019-03-19T22:13:19.711Z,6.90
2019-03-19T22:15:49.496Z,6.80
2019-03-19T22:18:19.299Z,6.80
2019-03-19T22:20:49.084Z,6.80
2019-03-19T22:23:18.939Z,6.90
2019-03-19T22:25:48.727Z,6.80
2019-03-19T22:28:18.571Z,6.80
2019-03-19T22:30:48.364Z,6.70
2019-03-19T22:33:19.290Z,6.70
2019-03-19T22:35:49.074Z,6.70
2019-03-19T22:38:18.856Z,6.60
2019-03-19T22:40:48.644Z,6.60
2019-03-19T22:43:18.448Z,6.50
2019-03-19T22:45:48.305Z,6.50
2019-03-19T22:48:18.112Z,6.50
2019-03-19T22:50:47.976Z,6.50
2019-03-19T22:53:18.823Z,6.50
2019-03-19T22:55:48.613Z,6.50
2019-03-19T22:58:18.386Z,6.50
2019-03-19T23:00:48.562Z,6.50
2019-03-19T23:03:18.395Z,6.50
2019-03-19T23:05:48.203Z,6.50
2019-03-19T23:08:17.984Z,6.50
2019-03-19T23:10:47.778Z,6.50
2019-03-19T23:13:17.622Z,6.50
2019-03-19T23:15:47.419Z,6.40
2019-03-19T23:18:17.279Z,6.40
2019-03-19T23:20:47.057Z,6.30
2019-03-19T23:23:16.857Z,6.30
2019-03-19T23:25:46.634Z,6.30
2019-03-19T23:28:16.421Z,6.30
2019-03-19T23:30:46.263Z,6.30
2019-03-19T23:33:16.055Z,6.30
2019-03-19T23:35:45.900Z,6.20
2019-03-19T23:38:15.686Z,6.20
2019-03-19T23:40:45.457Z,6.20
2019-03-19T23:43:15.255Z,6.20
2019-03-19T23:45:45.026Z,6.20
2019-03-19T23:48:14.847Z,6.20
2019-03-19T23:50:44.627Z,6.10
2019-03-19T23:53:14.399Z,6.10
2019-03-19T23:55:44.255Z,6.10
2019-03-19T23:58:14.172Z,6.00
